sensor_id;sensor_type;location;lat;lon;timestamp;P1;durP1;ratioP1;P2;durP2;ratioP2
52396;SDS011;38322;53.108;6.308;2023-02-28T06:01:18;8.45;;;5.55;;
52396;SDS011;38322;53.108;6.308;2023-02-28T06:03:49;7.90;;;5.65;;
52396;SDS011;38322;53.108;6.308;2023-02-28T06:06:16;13.40;;;8.07;;
52396;SDS011;38322;53.108;6.308;2023-02-28T06:08:41;13.15;;;8.23;;
52396;SDS011;38322;53.108;6.308;2023-02-28T06:11:09;14.57;;;7.90;;
52396;SDS011;38322;53.108;6.308;2023-02-28T06:13:35;9.73;;;7.95;;
52396;SDS011;38322;53.108;6.308;2023-02-28T06:16:01;13.98;;;8.68;;
52396;SDS011;38322;53.108;6.308;2023-02-28T06:18:27;12.18;;;8.10;;
52396;SDS011;38322;53.108;6.308;2023-02-28T06:20:53;12.02;;;7.97;;
52396;SDS011;38322;53.108;6.308;2023-02-28T06:23:21;13.55;;;9.07;;
52396;SDS011;38322;53.108;6.308;2023-02-28T06:25:47;11.82;;;8.35;;
52396;SDS011;38322;53.108;6.308;2023-02-28T06:28:12;13.10;;;9.13;;
52396;SDS011;38322;53.108;6.308;2023-02-28T06:30:38;17.17;;;10.63;;
52396;SDS011;38322;53.108;6.308;2023-02-28T06:33:04;12.93;;;9.45;;
52396;SDS011;38322;53.108;6.308;2023-02-28T06:35:30;11.77;;;9.32;;
52396;SDS011;38322;53.108;6.308;2023-02-28T06:37:56;12.52;;;9.57;;
52396;SDS011;38322;53.108;6.308;2023-02-28T06:40:22;12.40;;;9.00;;
52396;SDS011;38322;53.108;6.308;2023-02-28T06:42:48;14.32;;;10.20;;
52396;SDS011;38322;53.108;6.308;2023-02-28T06:45:14;14.73;;;10.75;;
52396;SDS011;38322;53.108;6.308;2023-02-28T06:47:40;15.70;;;12.25;;
52396;SDS011;38322;53.108;6.308;2023-02-28T06:50:08;15.60;;;10.50;;
52396;SDS011;38322;53.108;6.308;2023-02-28T06:52:35;15.27;;;10.13;;
52396;SDS011;38322;53.108;6.308;2023-02-28T06:55:03;14.57;;;10.55;;
52396;SDS011;38322;53.108;6.308;2023-02-28T06:57:30;16.08;;;11.00;;
52396;SDS011;38322;53.108;6.308;2023-02-28T06:59:59;16.02;;;10.93;;
52396;SDS011;38322;53.108;6.308;2023-02-28T07:02:30;15.43;;;9.35;;
52396;SDS011;38322;53.108;6.308;2023-02-28T07:04:56;15.02;;;9.60;;
52396;SDS011;38322;53.108;6.308;2023-02-28T07:07:22;12.95;;;9.63;;
52396;SDS011;38322;53.108;6.308;2023-02-28T07:09:48;14.35;;;9.27;;
52396;SDS011;38322;53.108;6.308;2023-02-28T07:12:14;13.65;;;9.52;;
52396;SDS011;38322;53.108;6.308;2023-02-28T07:14:40;17.08;;;10.20;;
52396;SDS011;38322;53.108;6.308;2023-02-28T07:17:08;15.00;;;9.90;;
52396;SDS011;38322;53.108;6.308;2023-02-28T07:19:35;16.65;;;11.68;;
52396;SDS011;38322;53.108;6.308;2023-02-28T07:22:01;15.50;;;10.85;;
52396;SDS011;38322;53.108;6.308;2023-02-28T07:24:28;16.45;;;10.38;;
52396;SDS011;38322;53.108;6.308;2023-02-28T07:26:54;15.35;;;10.15;;
52396;SDS011;38322;53.108;6.308;2023-02-28T07:29:20;15.30;;;10.23;;
52396;SDS011;38322;53.108;6.308;2023-02-28T07:32:02;17.23;;;10.85;;
52396;SDS011;38322;53.108;6.308;2023-02-28T07:34:27;15.57;;;9.68;;
52396;SDS011;38322;53.108;6.308;2023-02-28T07:36:54;12.30;;;9.30;;
52396;SDS011;38322;53.108;6.308;2023-02-28T07:39:20;13.80;;;8.43;;
52396;SDS011;38322;53.108;6.308;2023-02-28T07:41:46;15.23;;;9.82;;
52396;SDS011;38322;53.108;6.308;2023-02-28T07:44:12;13.27;;;9.25;;
52396;SDS011;38322;53.108;6.308;2023-02-28T07:46:38;11.32;;;9.45;;
52396;SDS011;38322;53.108;6.308;2023-02-28T07:49:04;14.10;;;10.85;;
52396;SDS011;38322;53.108;6.308;2023-02-28T07:51:31;12.65;;;8.65;;
52396;SDS011;38322;53.108;6.308;2023-02-28T07:53:57;15.30;;;9.82;;
52396;SDS011;38322;53.108;6.308;2023-02-28T07:56:23;14.45;;;10.05;;
52396;SDS011;38322;53.108;6.308;2023-02-28T07:58:49;13.48;;;9.20;;
52396;SDS011;38322;53.108;6.308;2023-02-28T08:01:14;13.05;;;8.95;;
52396;SDS011;38322;53.108;6.308;2023-02-28T08:03:40;14.60;;;10.07;;
52396;SDS011;38322;53.108;6.308;2023-02-28T08:06:07;15.70;;;10.32;;
52396;SDS011;38322;53.108;6.308;2023-02-28T08:08:40;14.40;;;9.85;;
52396;SDS011;38322;53.108;6.308;2023-02-28T08:11:06;13.15;;;9.85;;
52396;SDS011;38322;53.108;6.308;2023-02-28T08:13:31;13.35;;;9.02;;
52396;SDS011;38322;53.108;6.308;2023-02-28T08:15:57;13.25;;;9.43;;
52396;SDS011;38322;53.108;6.308;2023-02-28T08:18:26;15.60;;;10.50;;
52396;SDS011;38322;53.108;6.308;2023-02-28T08:20:52;13.90;;;8.93;;
52396;SDS011;38322;53.108;6.308;2023-02-28T08:23:17;14.52;;;9.70;;
52396;SDS011;38322;53.108;6.308;2023-02-28T08:25:43;17.23;;;9.60;;
52396;SDS011;38322;53.108;6.308;2023-02-28T08:28:09;12.60;;;9.50;;
52396;SDS011;38322;53.108;6.308;2023-02-28T08:30:35;15.40;;;10.65;;
52396;SDS011;38322;53.108;6.308;2023-02-28T08:33:01;13.05;;;8.50;;
52396;SDS011;38322;53.108;6.308;2023-02-28T08:35:27;11.40;;;8.35;;
52396;SDS011;38322;53.108;6.308;2023-02-28T08:37:53;14.55;;;10.13;;
52396;SDS011;38322;53.108;6.308;2023-02-28T08:40:19;12.90;;;8.75;;
52396;SDS011;38322;53.108;6.308;2023-02-28T08:42:45;19.75;;;9.50;;
52396;SDS011;38322;53.108;6.308;2023-02-28T08:45:12;13.57;;;10.27;;
52396;SDS011;38322;53.108;6.308;2023-02-28T08:47:39;14.95;;;10.10;;
52396;SDS011;38322;53.108;6.308;2023-02-28T08:50:05;15.13;;;10.05;;
52396;SDS011;38322;53.108;6.308;2023-02-28T08:52:31;12.98;;;9.73;;
52396;SDS011;38322;53.108;6.308;2023-02-28T08:54:58;15.38;;;10.02;;
52396;SDS011;38322;53.108;6.308;2023-02-28T08:57:24;17.98;;;11.18;;
52396;SDS011;38322;53.108;6.308;2023-02-28T08:59:51;13.45;;;8.98;;
52396;SDS011;38322;53.108;6.308;2023-02-28T09:02:17;16.17;;;9.95;;
52396;SDS011;38322;53.108;6.308;2023-02-28T09:04:43;15.15;;;9.57;;
52396;SDS011;38322;53.108;6.308;2023-02-28T09:07:10;13.73;;;9.57;;
52396;SDS011;38322;53.108;6.308;2023-02-28T09:09:37;15.35;;;10.55;;
52396;SDS011;38322;53.108;6.308;2023-02-28T09:12:22;11.00;;;8.40;;
52396;SDS011;38322;53.108;6.308;2023-02-28T09:14:49;14.63;;;9.10;;
52396;SDS011;38322;53.108;6.308;2023-02-28T09:17:16;12.05;;;9.40;;
52396;SDS011;38322;53.108;6.308;2023-02-28T09:19:42;14.35;;;8.68;;
52396;SDS011;38322;53.108;6.308;2023-02-28T09:22:08;14.00;;;7.93;;
52396;SDS011;38322;53.108;6.308;2023-02-28T09:24:36;13.73;;;8.18;;
52396;SDS011;38322;53.108;6.308;2023-02-28T09:27:03;11.30;;;7.75;;
52396;SDS011;38322;53.108;6.308;2023-02-28T09:29:29;14.05;;;9.45;;
52396;SDS011;38322;53.108;6.308;2023-02-28T09:31:55;11.57;;;8.35;;
52396;SDS011;38322;53.108;6.308;2023-02-28T09:34:23;10.85;;;7.70;;
52396;SDS011;38322;53.108;6.308;2023-02-28T09:36:50;13.02;;;8.50;;
52396;SDS011;38322;53.108;6.308;2023-02-28T09:39:20;11.93;;;8.63;;
52396;SDS011;38322;53.108;6.308;2023-02-28T09:41:49;12.20;;;9.23;;
52396;SDS011;38322;53.108;6.308;2023-02-28T09:44:35;12.90;;;9.18;;
52396;SDS011;38322;53.108;6.308;2023-02-28T09:47:14;12.73;;;9.27;;
52396;SDS011;38322;53.108;6.308;2023-02-28T09:49:52;11.18;;;8.25;;
52396;SDS011;38322;53.108;6.308;2023-02-28T09:52:20;12.23;;;9.07;;
52396;SDS011;38322;53.108;6.308;2023-02-28T09:54:49;11.23;;;8.90;;
52396;SDS011;38322;53.108;6.308;2023-02-28T09:57:19;14.43;;;10.68;;
52396;SDS011;38322;53.108;6.308;2023-02-28T10:00:02;13.05;;;9.60;;
52396;SDS011;38322;53.108;6.308;2023-02-28T10:02:41;11.32;;;10.05;;
52396;SDS011;38322;53.108;6.308;2023-02-28T10:05:12;17.85;;;9.70;;
52396;SDS011;38322;53.108;6.308;2023-02-28T10:10:25;12.38;;;8.43;;
52396;SDS011;38322;53.108;6.308;2023-02-28T10:12:58;14.50;;;7.38;;
52396;SDS011;38322;53.108;6.308;2023-02-28T10:15:28;12.52;;;8.85;;
52396;SDS011;38322;53.108;6.308;2023-02-28T10:17:57;16.15;;;9.20;;
52396;SDS011;38322;53.108;6.308;2023-02-28T10:20:27;17.25;;;8.60;;
52396;SDS011;38322;53.108;6.308;2023-02-28T10:22:57;10.40;;;7.25;;
52396;SDS011;38322;53.108;6.308;2023-02-28T10:25:27;11.23;;;7.72;;
52396;SDS011;38322;53.108;6.308;2023-02-28T10:28:00;9.73;;;6.90;;
52396;SDS011;38322;53.108;6.308;2023-02-28T10:30:36;11.93;;;6.95;;
52396;SDS011;38322;53.108;6.308;2023-02-28T10:33:03;5.93;;;5.15;;
52396;SDS011;38322;53.108;6.308;2023-02-28T10:35:29;7.10;;;5.05;;
52396;SDS011;38322;53.108;6.308;2023-02-28T10:37:56;7.93;;;5.53;;
52396;SDS011;38322;53.108;6.308;2023-02-28T10:42:55;9.60;;;6.10;;
52396;SDS011;38322;53.108;6.308;2023-02-28T10:45:23;10.93;;;7.28;;
52396;SDS011;38322;53.108;6.308;2023-02-28T10:47:54;7.85;;;5.85;;
52396;SDS011;38322;53.108;6.308;2023-02-28T10:53:05;7.45;;;5.38;;
52396;SDS011;38322;53.108;6.308;2023-02-28T10:55:42;7.07;;;4.95;;
52396;SDS011;38322;53.108;6.308;2023-02-28T10:58:27;8.02;;;5.75;;
52396;SDS011;38322;53.108;6.308;2023-02-28T11:00:55;9.05;;;6.25;;
52396;SDS011;38322;53.108;6.308;2023-02-28T11:03:24;6.35;;;4.78;;
52396;SDS011;38322;53.108;6.308;2023-02-28T11:05:55;7.40;;;5.35;;
52396;SDS011;38322;53.108;6.308;2023-02-28T11:08:21;6.75;;;5.05;;
52396;SDS011;38322;53.108;6.308;2023-02-28T11:10:48;8.65;;;3.97;;
52396;SDS011;38322;53.108;6.308;2023-02-28T11:13:21;8.13;;;4.50;;
52396;SDS011;38322;53.108;6.308;2023-02-28T11:15:54;6.50;;;3.78;;
52396;SDS011;38322;53.108;6.308;2023-02-28T11:21:18;4.90;;;3.53;;
52396;SDS011;38322;53.108;6.308;2023-02-28T11:23:49;6.15;;;2.97;;
52396;SDS011;38322;53.108;6.308;2023-02-28T11:26:34;7.72;;;3.65;;
52396;SDS011;38322;53.108;6.308;2023-02-28T11:29:16;4.03;;;3.20;;
52396;SDS011;38322;53.108;6.308;2023-02-28T11:34:44;3.25;;;2.90;;
52396;SDS011;38322;53.108;6.308;2023-02-28T11:37:12;7.18;;;3.55;;
52396;SDS011;38322;53.108;6.308;2023-02-28T11:39:41;4.57;;;3.15;;
52396;SDS011;38322;53.108;6.308;2023-02-28T11:44:43;8.40;;;4.38;;
52396;SDS011;38322;53.108;6.308;2023-02-28T11:50:01;5.28;;;3.15;;
52396;SDS011;38322;53.108;6.308;2023-02-28T11:52:36;3.85;;;2.90;;
52396;SDS011;38322;53.108;6.308;2023-02-28T11:57:52;3.63;;;2.78;;
52396;SDS011;38322;53.108;6.308;2023-02-28T12:03:40;7.30;;;3.30;;
52396;SDS011;38322;53.108;6.308;2023-02-28T12:06:17;2.38;;;2.15;;
52396;SDS011;38322;53.108;6.308;2023-02-28T12:09:00;4.40;;;2.95;;
52396;SDS011;38322;53.108;6.308;2023-02-28T12:17:25;5.22;;;3.20;;
52396;SDS011;38322;53.108;6.308;2023-02-28T12:20:05;6.43;;;3.08;;
52396;SDS011;38322;53.108;6.308;2023-02-28T12:25:46;4.05;;;2.38;;
52396;SDS011;38322;53.108;6.308;2023-02-28T12:28:14;6.22;;;3.03;;
52396;SDS011;38322;53.108;6.308;2023-02-28T12:30:49;3.58;;;2.47;;
52396;SDS011;38322;53.108;6.308;2023-02-28T12:33:24;4.43;;;3.35;;
52396;SDS011;38322;53.108;6.308;2023-02-28T12:35:58;3.72;;;2.53;;
52396;SDS011;38322;53.108;6.308;2023-02-28T12:38:29;5.22;;;3.35;;
52396;SDS011;38322;53.108;6.308;2023-02-28T12:41:03;6.93;;;3.60;;
52396;SDS011;38322;53.108;6.308;2023-02-28T12:43:37;3.70;;;2.83;;
52396;SDS011;38322;53.108;6.308;2023-02-28T12:46:09;5.63;;;3.28;;
52396;SDS011;38322;53.108;6.308;2023-02-28T12:48:42;5.38;;;2.45;;
52396;SDS011;38322;53.108;6.308;2023-02-28T12:51:11;7.27;;;3.00;;
52396;SDS011;38322;53.108;6.308;2023-02-28T12:56:19;3.03;;;2.08;;
52396;SDS011;38322;53.108;6.308;2023-02-28T12:59:12;5.18;;;2.92;;
52396;SDS011;38322;53.108;6.308;2023-02-28T13:01:56;5.63;;;2.47;;
52396;SDS011;38322;53.108;6.308;2023-02-28T13:04:27;7.00;;;2.72;;
52396;SDS011;38322;53.108;6.308;2023-02-28T13:07:17;5.32;;;3.20;;
52396;SDS011;38322;53.108;6.308;2023-02-28T13:10:02;5.45;;;2.30;;
52396;SDS011;38322;53.108;6.308;2023-02-28T13:12:31;4.78;;;2.70;;
52396;SDS011;38322;53.108;6.308;2023-02-28T13:15:01;7.68;;;3.60;;
52396;SDS011;38322;53.108;6.308;2023-02-28T13:17:36;4.13;;;3.30;;
52396;SDS011;38322;53.108;6.308;2023-02-28T13:20:13;4.47;;;2.65;;
52396;SDS011;38322;53.108;6.308;2023-02-28T13:22:43;3.45;;;2.80;;
52396;SDS011;38322;53.108;6.308;2023-02-28T13:27:50;5.35;;;2.40;;
52396;SDS011;38322;53.108;6.308;2023-02-28T13:33:21;9.93;;;3.80;;
52396;SDS011;38322;53.108;6.308;2023-02-28T13:36:00;8.20;;;4.45;;
52396;SDS011;38322;53.108;6.308;2023-02-28T13:38:43;8.07;;;3.85;;
52396;SDS011;38322;53.108;6.308;2023-02-28T13:44:05;4.63;;;3.58;;
52396;SDS011;38322;53.108;6.308;2023-02-28T13:46:35;3.95;;;3.55;;
52396;SDS011;38322;53.108;6.308;2023-02-28T13:51:49;4.57;;;3.15;;
52396;SDS011;38322;53.108;6.308;2023-02-28T13:54:20;7.63;;;3.88;;
52396;SDS011;38322;53.108;6.308;2023-02-28T13:57:07;8.85;;;5.45;;
52396;SDS011;38322;53.108;6.308;2023-02-28T14:02:22;6.05;;;3.67;;
52396;SDS011;38322;53.108;6.308;2023-02-28T14:05:00;6.10;;;4.65;;
52396;SDS011;38322;53.108;6.308;2023-02-28T14:07:32;6.13;;;4.43;;
52396;SDS011;38322;53.108;6.308;2023-02-28T14:10:06;7.43;;;4.60;;
52396;SDS011;38322;53.108;6.308;2023-02-28T14:12:54;8.00;;;3.88;;
52396;SDS011;38322;53.108;6.308;2023-02-28T14:15:34;6.35;;;4.00;;
52396;SDS011;38322;53.108;6.308;2023-02-28T14:20:58;5.80;;;3.47;;
52396;SDS011;38322;53.108;6.308;2023-02-28T14:23:43;5.93;;;3.95;;
52396;SDS011;38322;53.108;6.308;2023-02-28T14:26:25;5.50;;;3.88;;
52396;SDS011;38322;53.108;6.308;2023-02-28T14:31:43;6.88;;;4.07;;
52396;SDS011;38322;53.108;6.308;2023-02-28T14:34:26;5.18;;;4.00;;
52396;SDS011;38322;53.108;6.308;2023-02-28T14:37:26;8.10;;;3.75;;
52396;SDS011;38322;53.108;6.308;2023-02-28T14:39:55;7.15;;;3.92;;
52396;SDS011;38322;53.108;6.308;2023-02-28T14:44:55;7.63;;;3.95;;
52396;SDS011;38322;53.108;6.308;2023-02-28T14:47:21;6.65;;;4.18;;
52396;SDS011;38322;53.108;6.308;2023-02-28T14:49:52;6.38;;;3.08;;
52396;SDS011;38322;53.108;6.308;2023-02-28T14:52:20;6.68;;;4.55;;
52396;SDS011;38322;53.108;6.308;2023-02-28T14:54:51;5.88;;;4.03;;
52396;SDS011;38322;53.108;6.308;2023-02-28T14:57:22;8.18;;;3.67;;
52396;SDS011;38322;53.108;6.308;2023-02-28T15:02:24;6.10;;;4.05;;
52396;SDS011;38322;53.108;6.308;2023-02-28T15:04:53;4.43;;;3.38;;
52396;SDS011;38322;53.108;6.308;2023-02-28T15:07:22;7.25;;;5.18;;
52396;SDS011;38322;53.108;6.308;2023-02-28T15:10:07;6.82;;;3.97;;
52396;SDS011;38322;53.108;6.308;2023-02-28T15:12:35;6.35;;;4.43;;
52396;SDS011;38322;53.108;6.308;2023-02-28T15:15:02;7.57;;;4.95;;
52396;SDS011;38322;53.108;6.308;2023-02-28T15:17:28;5.88;;;4.00;;
52396;SDS011;38322;53.108;6.308;2023-02-28T15:19:54;6.43;;;4.72;;
52396;SDS011;38322;53.108;6.308;2023-02-28T15:22:24;8.13;;;5.93;;
52396;SDS011;38322;53.108;6.308;2023-02-28T15:24:54;9.23;;;4.60;;
52396;SDS011;38322;53.108;6.308;2023-02-28T15:27:22;4.88;;;4.10;;
52396;SDS011;38322;53.108;6.308;2023-02-28T15:29:55;7.43;;;5.67;;
52396;SDS011;38322;53.108;6.308;2023-02-28T15:32:25;6.20;;;4.65;;
52396;SDS011;38322;53.108;6.308;2023-02-28T15:34:56;6.85;;;4.13;;
52396;SDS011;38322;53.108;6.308;2023-02-28T15:37:28;6.07;;;4.57;;
52396;SDS011;38322;53.108;6.308;2023-02-28T15:40:05;7.45;;;4.13;;
52396;SDS011;38322;53.108;6.308;2023-02-28T15:42:31;7.13;;;4.60;;
52396;SDS011;38322;53.108;6.308;2023-02-28T15:44:57;9.25;;;5.78;;
52396;SDS011;38322;53.108;6.308;2023-02-28T15:47:25;7.03;;;4.68;;
52396;SDS011;38322;53.108;6.308;2023-02-28T15:49:58;10.70;;;5.43;;
52396;SDS011;38322;53.108;6.308;2023-02-28T15:52:28;6.15;;;4.57;;
52396;SDS011;38322;53.108;6.308;2023-02-28T15:55:07;10.82;;;5.60;;
52396;SDS011;38322;53.108;6.308;2023-02-28T15:57:38;9.07;;;5.78;;
52396;SDS011;38322;53.108;6.308;2023-02-28T16:00:06;6.30;;;5.03;;
52396;SDS011;38322;53.108;6.308;2023-02-28T16:02:38;7.28;;;5.35;;
52396;SDS011;38322;53.108;6.308;2023-02-28T16:07:31;6.80;;;4.65;;
52396;SDS011;38322;53.108;6.308;2023-02-28T16:09:58;7.57;;;5.78;;
52396;SDS011;38322;53.108;6.308;2023-02-28T16:12:25;8.02;;;5.40;;
52396;SDS011;38322;53.108;6.308;2023-02-28T16:14:53;9.18;;;4.72;;
52396;SDS011;38322;53.108;6.308;2023-02-28T16:17:22;9.20;;;4.53;;
52396;SDS011;38322;53.108;6.308;2023-02-28T16:19:50;7.72;;;4.80;;
52396;SDS011;38322;53.108;6.308;2023-02-28T16:22:16;7.43;;;5.32;;
52396;SDS011;38322;53.108;6.308;2023-02-28T16:24:42;9.68;;;6.03;;
52396;SDS011;38322;53.108;6.308;2023-02-28T16:27:15;8.52;;;5.88;;
52396;SDS011;38322;53.108;6.308;2023-02-28T16:29:44;8.07;;;5.05;;
52396;SDS011;38322;53.108;6.308;2023-02-28T16:32:12;8.18;;;5.25;;
52396;SDS011;38322;53.108;6.308;2023-02-28T16:34:40;8.55;;;5.63;;
52396;SDS011;38322;53.108;6.308;2023-02-28T16:37:14;10.32;;;6.18;;
52396;SDS011;38322;53.108;6.308;2023-02-28T16:39:42;7.72;;;6.43;;
52396;SDS011;38322;53.108;6.308;2023-02-28T16:42:14;7.82;;;5.57;;
52396;SDS011;38322;53.108;6.308;2023-02-28T16:44:47;8.40;;;7.03;;
52396;SDS011;38322;53.108;6.308;2023-02-28T16:47:13;9.15;;;5.63;;
52396;SDS011;38322;53.108;6.308;2023-02-28T16:49:40;9.02;;;5.63;;
52396;SDS011;38322;53.108;6.308;2023-02-28T16:52:07;7.82;;;5.32;;
52396;SDS011;38322;53.108;6.308;2023-02-28T16:54:34;8.27;;;6.25;;
52396;SDS011;38322;53.108;6.308;2023-02-28T16:57:00;7.20;;;5.10;;
52396;SDS011;38322;53.108;6.308;2023-02-28T16:59:26;8.50;;;6.20;;
52396;SDS011;38322;53.108;6.308;2023-02-28T17:01:54;11.30;;;5.20;;
52396;SDS011;38322;53.108;6.308;2023-02-28T17:04:23;9.90;;;5.70;;
52396;SDS011;38322;53.108;6.308;2023-02-28T17:06:50;7.43;;;5.43;;
52396;SDS011;38322;53.108;6.308;2023-02-28T17:09:17;6.13;;;4.97;;
52396;SDS011;38322;53.108;6.308;2023-02-28T17:11:46;9.77;;;6.47;;
52396;SDS011;38322;53.108;6.308;2023-02-28T17:14:13;11.43;;;6.13;;
52396;SDS011;38322;53.108;6.308;2023-02-28T17:16:39;12.85;;;6.57;;
52396;SDS011;38322;53.108;6.308;2023-02-28T17:19:09;8.18;;;5.63;;
52396;SDS011;38322;53.108;6.308;2023-02-28T17:21:38;9.13;;;5.65;;
52396;SDS011;38322;53.108;6.308;2023-02-28T17:24:06;7.68;;;5.97;;
52396;SDS011;38322;53.108;6.308;2023-02-28T17:26:33;12.30;;;5.95;;
52396;SDS011;38322;53.108;6.308;2023-02-28T17:28:59;9.65;;;5.82;;
52396;SDS011;38322;53.108;6.308;2023-02-28T17:31:26;9.82;;;7.07;;
52396;SDS011;38322;53.108;6.308;2023-02-28T17:33:53;7.88;;;6.57;;
52396;SDS011;38322;53.108;6.308;2023-02-28T17:36:21;9.27;;;6.55;;
52396;SDS011;38322;53.108;6.308;2023-02-28T17:38:50;10.38;;;6.97;;
52396;SDS011;38322;53.108;6.308;2023-02-28T17:41:17;10.95;;;7.25;;
52396;SDS011;38322;53.108;6.308;2023-02-28T17:43:44;17.75;;;8.38;;
52396;SDS011;38322;53.108;6.308;2023-02-28T17:46:16;9.82;;;7.63;;
52396;SDS011;38322;53.108;6.308;2023-02-28T17:48:47;9.68;;;6.93;;
52396;SDS011;38322;53.108;6.308;2023-02-28T17:51:13;8.32;;;6.50;;
52396;SDS011;38322;53.108;6.308;2023-02-28T17:53:40;9.63;;;6.28;;
52396;SDS011;38322;53.108;6.308;2023-02-28T17:56:13;10.93;;;7.20;;
52396;SDS011;38322;53.108;6.308;2023-02-28T17:58:42;9.50;;;7.00;;
52396;SDS011;38322;53.108;6.308;2023-02-28T18:01:08;8.80;;;6.40;;
52396;SDS011;38322;53.108;6.308;2023-02-28T18:03:34;8.98;;;7.10;;
52396;SDS011;38322;53.108;6.308;2023-02-28T18:06:00;8.80;;;6.63;;
52396;SDS011;38322;53.108;6.308;2023-02-28T18:08:28;12.45;;;7.63;;
52396;SDS011;38322;53.108;6.308;2023-02-28T18:10:54;10.55;;;7.85;;
52396;SDS011;38322;53.108;6.308;2023-02-28T18:13:19;10.50;;;8.55;;
52396;SDS011;38322;53.108;6.308;2023-02-28T18:15:45;17.55;;;10.30;;
52396;SDS011;38322;53.108;6.308;2023-02-28T18:18:12;13.75;;;8.65;;
52396;SDS011;38322;53.108;6.308;2023-02-28T18:20:39;15.02;;;10.88;;
52396;SDS011;38322;53.108;6.308;2023-02-28T18:23:05;12.77;;;8.52;;
52396;SDS011;38322;53.108;6.308;2023-02-28T18:25:31;10.82;;;7.38;;
52396;SDS011;38322;53.108;6.308;2023-02-28T18:27:57;11.80;;;7.57;;
52396;SDS011;38322;53.108;6.308;2023-02-28T18:30:25;12.30;;;9.48;;
52396;SDS011;38322;53.108;6.308;2023-02-28T18:32:52;13.65;;;9.55;;
52396;SDS011;38322;53.108;6.308;2023-02-28T18:35:18;12.43;;;9.70;;
52396;SDS011;38322;53.108;6.308;2023-02-28T18:38:00;12.73;;;9.70;;
52396;SDS011;38322;53.108;6.308;2023-02-28T18:40:29;12.88;;;9.07;;
52396;SDS011;38322;53.108;6.308;2023-02-28T18:42:55;14.88;;;9.68;;
52396;SDS011;38322;53.108;6.308;2023-02-28T18:45:21;11.15;;;9.55;;
52396;SDS011;38322;53.108;6.308;2023-02-28T18:47:47;14.73;;;9.93;;
52396;SDS011;38322;53.108;6.308;2023-02-28T18:50:13;15.60;;;11.65;;
52396;SDS011;38322;53.108;6.308;2023-02-28T18:52:39;13.18;;;10.20;;
52396;SDS011;38322;53.108;6.308;2023-02-28T18:55:05;13.90;;;11.23;;
52396;SDS011;38322;53.108;6.308;2023-02-28T18:57:33;15.63;;;11.20;;
52396;SDS011;38322;53.108;6.308;2023-02-28T18:59:59;16.40;;;10.77;;
52396;SDS011;38322;53.108;6.308;2023-02-28T19:02:24;18.05;;;11.23;;
52396;SDS011;38322;53.108;6.308;2023-02-28T19:04:51;22.17;;;11.45;;
52396;SDS011;38322;53.108;6.308;2023-02-28T19:07:16;15.80;;;10.88;;
52396;SDS011;38322;53.108;6.308;2023-02-28T19:09:42;13.60;;;10.80;;
52396;SDS011;38322;53.108;6.308;2023-02-28T19:12:08;14.82;;;12.20;;
52396;SDS011;38322;53.108;6.308;2023-02-28T19:14:34;17.17;;;10.13;;
52396;SDS011;38322;53.108;6.308;2023-02-28T19:17:00;12.90;;;10.75;;
52396;SDS011;38322;53.108;6.308;2023-02-28T19:19:26;13.90;;;9.95;;
52396;SDS011;38322;53.108;6.308;2023-02-28T19:21:52;16.90;;;12.52;;
52396;SDS011;38322;53.108;6.308;2023-02-28T19:24:18;14.93;;;10.50;;
52396;SDS011;38322;53.108;6.308;2023-02-28T19:26:43;15.43;;;12.20;;
52396;SDS011;38322;53.108;6.308;2023-02-28T19:29:09;16.10;;;11.35;;
52396;SDS011;38322;53.108;6.308;2023-02-28T19:31:35;16.55;;;12.48;;
52396;SDS011;38322;53.108;6.308;2023-02-28T19:34:02;16.42;;;11.05;;
52396;SDS011;38322;53.108;6.308;2023-02-28T19:36:28;17.17;;;12.20;;
52396;SDS011;38322;53.108;6.308;2023-02-28T19:38:54;17.60;;;12.93;;
52396;SDS011;38322;53.108;6.308;2023-02-28T19:41:19;19.23;;;13.18;;
52396;SDS011;38322;53.108;6.308;2023-02-28T19:43:46;17.08;;;12.68;;
52396;SDS011;38322;53.108;6.308;2023-02-28T19:46:12;22.15;;;12.18;;
52396;SDS011;38322;53.108;6.308;2023-02-28T19:48:38;14.18;;;11.43;;
52396;SDS011;38322;53.108;6.308;2023-02-28T19:51:07;17.25;;;13.10;;
52396;SDS011;38322;53.108;6.308;2023-02-28T19:53:35;19.92;;;13.32;;
52396;SDS011;38322;53.108;6.308;2023-02-28T19:56:02;24.55;;;13.50;;
52396;SDS011;38322;53.108;6.308;2023-02-28T19:58:29;17.20;;;12.32;;
52396;SDS011;38322;53.108;6.308;2023-02-28T20:00:55;23.45;;;12.88;;
52396;SDS011;38322;53.108;6.308;2023-02-28T20:03:22;16.67;;;12.45;;
52396;SDS011;38322;53.108;6.308;2023-02-28T20:05:57;16.38;;;11.82;;
52396;SDS011;38322;53.108;6.308;2023-02-28T20:08:25;17.17;;;12.32;;
52396;SDS011;38322;53.108;6.308;2023-02-28T20:10:51;18.40;;;12.88;;
52396;SDS011;38322;53.108;6.308;2023-02-28T20:13:17;16.98;;;12.70;;
52396;SDS011;38322;53.108;6.308;2023-02-28T20:15:43;17.98;;;12.48;;
52396;SDS011;38322;53.108;6.308;2023-02-28T20:18:09;22.98;;;14.10;;
52396;SDS011;38322;53.108;6.308;2023-02-28T20:20:35;20.45;;;14.57;;
52396;SDS011;38322;53.108;6.308;2023-02-28T20:23:02;22.95;;;15.35;;
52396;SDS011;38322;53.108;6.308;2023-02-28T20:25:29;15.88;;;11.90;;
52396;SDS011;38322;53.108;6.308;2023-02-28T20:27:56;19.45;;;12.35;;
52396;SDS011;38322;53.108;6.308;2023-02-28T20:30:21;19.05;;;12.32;;
52396;SDS011;38322;53.108;6.308;2023-02-28T20:32:48;27.20;;;12.27;;
52396;SDS011;38322;53.108;6.308;2023-02-28T20:35:14;18.48;;;14.60;;
52396;SDS011;38322;53.108;6.308;2023-02-28T20:37:40;22.17;;;12.85;;
52396;SDS011;38322;53.108;6.308;2023-02-28T20:40:06;17.88;;;12.70;;
52396;SDS011;38322;53.108;6.308;2023-02-28T20:42:32;18.77;;;13.05;;
52396;SDS011;38322;53.108;6.308;2023-02-28T20:44:58;24.55;;;13.40;;
52396;SDS011;38322;53.108;6.308;2023-02-28T20:47:24;20.02;;;12.68;;
52396;SDS011;38322;53.108;6.308;2023-02-28T20:49:50;21.65;;;12.65;;
52396;SDS011;38322;53.108;6.308;2023-02-28T20:52:15;19.55;;;13.48;;
52396;SDS011;38322;53.108;6.308;2023-02-28T20:54:41;18.60;;;12.35;;
52396;SDS011;38322;53.108;6.308;2023-02-28T20:57:07;15.05;;;12.25;;
52396;SDS011;38322;53.108;6.308;2023-02-28T20:59:33;17.95;;;13.07;;
